Gepp, Arkansas
Current Conditions -  °F | °C
As of 3:53 AM on Monday 26 Jan 2015 (Local Time) from KBPK Reporting Station
Overcast Overcast  
Wind Chill: 30°   Ceiling: 1900
Heat Index: 36°   Visibility: 10mi
Dew Point: 29°   Wind: 7mph
Humidity: 76%   Direction: NA
Pressure: 30.06"   Gusts: 18mph
Location:  36.39°N, 92.1°W
Report Text: KBPK 260953Z AUTO VRB06G16KT 10SM OVC019 02/M02 A3006 RMK AO2 SLP184 T00221017
Loading
Personal Weather Stations






























Interactive Weather Map New forecast layout! Learn more

10-Day Weather Forecast

Advertisements
Track Severe Weather on mobile